createdAt,value
2018-11-02T00:01:44.866Z,45.17
2018-11-02T00:04:13.670Z,48.77
2018-11-02T00:06:42.442Z,51.73
2018-11-02T00:09:11.198Z,47.20
2018-11-02T00:11:39.952Z,48.87
2018-11-02T00:14:08.815Z,46.03
2018-11-02T00:16:37.640Z,50.77
2018-11-02T00:19:06.526Z,54.90
2018-11-02T00:21:35.303Z,44.93
2018-11-02T00:24:05.351Z,47.40
2018-11-02T00:26:34.112Z,43.53
2018-11-02T00:29:03.101Z,51.47
2018-11-02T00:31:31.847Z,48.27
2018-11-02T00:34:00.591Z,46.70
2018-11-02T00:36:29.379Z,48.80
2018-11-02T00:38:58.387Z,48.27
2018-11-02T00:41:27.361Z,49.07
2018-11-02T00:43:56.168Z,51.57
2018-11-02T00:46:25.090Z,45.80
2018-11-02T00:48:54.017Z,46.63
2018-11-02T00:51:22.799Z,45.40
2018-11-02T00:53:51.581Z,48.37
2018-11-02T00:56:20.346Z,49.70
2018-11-02T00:58:49.167Z,49.60
2018-11-02T01:01:17.958Z,53.47
2018-11-02T01:03:46.744Z,52.70
2018-11-02T01:06:15.582Z,50.40
2018-11-02T01:08:44.393Z,48.17
2018-11-02T01:11:13.224Z,51.20
2018-11-02T01:13:42.017Z,50.23
2018-11-02T01:16:10.888Z,52.87
2018-11-02T01:18:39.644Z,54.13
2018-11-02T01:21:08.706Z,53.63
2018-11-02T01:23:37.486Z,50.90
2018-11-02T01:26:06.614Z,47.53
2018-11-02T01:28:35.622Z,50.63
2018-11-02T01:31:04.644Z,49.60
2018-11-02T01:33:37.882Z,52.90
2018-11-02T01:36:08.046Z,54.13
2018-11-02T01:38:37.250Z,56.70
2018-11-02T01:41:06.233Z,55.63
2018-11-02T01:43:35.100Z,57.07
2018-11-02T01:46:03.937Z,58.00
2018-11-02T01:48:34.798Z,63.03
2018-11-02T01:51:03.739Z,61.40
2018-11-02T01:53:32.556Z,54.23
2018-11-02T01:56:01.327Z,59.30
2018-11-02T01:58:30.171Z,64.37
2018-11-02T02:00:59.154Z,59.27
2018-11-02T02:03:28.116Z,60.30
2018-11-02T02:05:56.910Z,58.40
2018-11-02T02:08:25.736Z,58.83
2018-11-02T02:10:54.522Z,58.33
2018-11-02T02:13:23.508Z,59.70
2018-11-02T02:15:51.285Z,57.80
2018-11-02T02:18:20.075Z,58.47
2018-11-02T02:20:48.846Z,61.10
2018-11-02T02:23:17.612Z,57.27
2018-11-02T02:25:46.459Z,54.10
2018-11-02T02:28:15.265Z,60.30
2018-11-02T02:30:44.104Z,58.47
2018-11-02T02:33:12.915Z,60.17
2018-11-02T02:35:41.679Z,56.80
2018-11-02T02:38:10.464Z,61.87
2018-11-02T02:40:39.304Z,59.87
2018-11-02T02:43:08.257Z,56.33
2018-11-02T02:45:37.055Z,60.27
2018-11-02T02:48:06.162Z,55.70
2018-11-02T02:50:34.979Z,57.87
2018-11-02T02:53:04.082Z,55.30
2018-11-02T02:55:32.855Z,61.50
2018-11-02T02:58:01.686Z,56.87
2018-11-02T03:00:30.786Z,52.10
2018-11-02T03:02:59.591Z,55.27
2018-11-02T03:05:28.378Z,53.57
2018-11-02T03:07:57.198Z,58.67
2018-11-02T03:10:26.021Z,58.73
2018-11-02T03:12:55.075Z,55.93
2018-11-02T03:15:23.818Z,51.77
2018-11-02T03:17:52.678Z,52.17
2018-11-02T03:20:21.473Z,51.77
2018-11-02T03:22:50.283Z,60.43
2018-11-02T03:25:19.109Z,52.03
2018-11-02T03:27:47.914Z,51.77
2018-11-02T03:30:17.361Z,53.00
2018-11-02T03:32:46.129Z,54.70
2018-11-02T03:35:15.479Z,50.47
2018-11-02T03:37:44.376Z,51.50
2018-11-02T03:40:13.197Z,51.37
2018-11-02T03:42:42.222Z,58.90
2018-11-02T03:45:11.014Z,54.60
2018-11-02T03:47:39.808Z,54.07
2018-11-02T03:50:10.041Z,55.67
2018-11-02T03:52:39.122Z,61.00
2018-11-02T03:55:09.025Z,60.30
2018-11-02T03:57:37.953Z,57.07
2018-11-02T04:00:10.998Z,50.03
2018-11-02T04:02:40.622Z,56.70
2018-11-02T04:05:10.410Z,51.13
2018-11-02T04:07:39.397Z,54.70
2018-11-02T04:10:09.778Z,57.23
2018-11-02T04:12:39.477Z,58.03
2018-11-02T04:15:08.530Z,59.13
2018-11-02T04:17:37.643Z,54.13
2018-11-02T04:20:07.727Z,50.77
2018-11-02T04:22:36.682Z,52.87
2018-11-02T04:25:05.769Z,53.83
2018-11-02T04:27:34.555Z,55.60
2018-11-02T04:30:06.706Z,51.23
2018-11-02T04:32:35.509Z,55.17
2018-11-02T04:35:04.660Z,58.20
2018-11-02T04:37:33.446Z,51.53
2018-11-02T04:40:02.259Z,51.07
2018-11-02T04:42:31.044Z,49.17
2018-11-02T04:44:59.832Z,52.20
2018-11-02T04:47:28.755Z,51.17
2018-11-02T04:49:57.525Z,50.20
2018-11-02T04:52:26.316Z,57.37
2018-11-02T04:54:55.051Z,50.07
2018-11-02T04:57:23.859Z,58.37
2018-11-02T04:59:53.074Z,49.87
2018-11-02T05:02:21.870Z,51.87
2018-11-02T05:04:50.650Z,51.80
2018-11-02T05:07:19.602Z,64.33
2018-11-02T05:09:48.494Z,50.80
2018-11-02T05:12:17.390Z,50.03
2018-11-02T05:14:46.275Z,58.70
2018-11-02T05:17:15.259Z,51.43
2018-11-02T05:19:44.091Z,50.37
2018-11-02T05:22:12.988Z,48.13
2018-11-02T05:24:41.906Z,52.37
2018-11-02T05:27:10.675Z,46.30
2018-11-02T05:29:39.486Z,51.30
2018-11-02T05:32:38.632Z,50.13
2018-11-02T05:35:07.430Z,50.53
2018-11-02T05:37:36.214Z,54.30
2018-11-02T05:40:06.399Z,52.73
2018-11-02T05:42:35.219Z,51.13
2018-11-02T05:45:05.009Z,55.37
2018-11-02T05:47:33.815Z,53.13
2018-11-02T05:50:02.648Z,53.80
2018-11-02T05:52:31.433Z,55.10
2018-11-02T05:55:00.742Z,50.80
2018-11-02T05:57:29.590Z,48.67
2018-11-02T05:59:59.224Z,49.17
2018-11-02T06:02:28.451Z,53.00
2018-11-02T06:04:57.974Z,58.43
2018-11-02T06:07:26.785Z,52.40
2018-11-02T06:09:55.530Z,53.43
2018-11-02T06:12:24.360Z,57.53
2018-11-02T06:14:56.265Z,57.77
2018-11-02T06:17:25.121Z,57.00
2018-11-02T06:19:53.950Z,56.90
2018-11-02T06:22:22.794Z,60.40
2018-11-02T06:24:51.806Z,49.30
2018-11-02T06:27:20.606Z,55.33
2018-11-02T06:29:49.430Z,57.30
2018-11-02T06:32:18.653Z,62.67
2018-11-02T06:34:48.417Z,52.47
2018-11-02T06:37:17.212Z,48.27
2018-11-02T06:39:46.044Z,51.03
2018-11-02T06:42:14.876Z,57.67
2018-11-02T06:44:43.995Z,53.77
2018-11-02T06:47:13.339Z,54.37
2018-11-02T06:49:42.122Z,56.67
2018-11-02T06:52:11.304Z,62.07
2018-11-02T06:54:40.070Z,52.17
2018-11-02T06:57:09.119Z,55.43
2018-11-02T06:59:38.084Z,55.43
2018-11-02T07:02:07.724Z,67.33
2018-11-02T07:04:36.553Z,59.23
2018-11-02T07:07:05.479Z,68.77
2018-11-02T07:09:34.422Z,64.70
2018-11-02T07:12:03.328Z,61.40
2018-11-02T07:14:32.862Z,57.70
2018-11-02T07:17:01.665Z,61.67
2018-11-02T07:19:30.685Z,60.53
2018-11-02T07:21:59.645Z,56.27
2018-11-02T07:24:28.668Z,61.60
2018-11-02T07:26:57.566Z,63.43
2018-11-02T07:29:26.409Z,53.67
2018-11-02T07:31:55.245Z,50.70
2018-11-02T07:34:24.071Z,58.43
2018-11-02T07:36:53.067Z,58.00
2018-11-02T07:39:21.982Z,54.43
2018-11-02T07:41:51.221Z,55.60
2018-11-02T07:44:20.064Z,52.10
2018-11-02T07:46:49.070Z,52.43
2018-11-02T07:49:18.236Z,54.73
2018-11-02T07:51:47.297Z,48.97
2018-11-02T07:54:16.090Z,54.67
2018-11-02T07:56:45.208Z,51.30
2018-11-02T07:59:14.014Z,54.87
2018-11-02T08:01:42.822Z,54.03
2018-11-02T08:04:11.818Z,51.23
2018-11-02T08:06:44.264Z,51.07
2018-11-02T08:09:14.329Z,54.47
2018-11-02T08:11:43.781Z,50.27
2018-11-02T08:14:12.792Z,50.50
2018-11-02T08:16:41.980Z,54.47
2018-11-02T08:19:10.811Z,48.50
2018-11-02T08:21:39.820Z,49.50
2018-11-02T08:24:08.692Z,53.73
2018-11-02T08:26:37.470Z,51.23
2018-11-02T08:29:06.430Z,47.17
2018-11-02T08:31:35.214Z,49.83
2018-11-02T08:34:04.051Z,50.23
2018-11-02T08:36:32.927Z,53.10
2018-11-02T08:39:01.880Z,55.80
2018-11-02T08:41:30.779Z,50.57
2018-11-02T08:43:59.596Z,52.60
2018-11-02T08:46:28.482Z,59.33
2018-11-02T08:48:57.460Z,46.53
2018-11-02T08:51:26.401Z,48.73
2018-11-02T08:53:55.211Z,46.93
2018-11-02T08:56:24.018Z,43.63
2018-11-02T08:58:53.035Z,46.50
2018-11-02T09:01:22.153Z,46.27
2018-11-02T09:03:50.960Z,46.23
2018-11-02T09:06:19.888Z,46.37
2018-11-02T09:08:48.707Z,42.77
2018-11-02T09:11:17.502Z,47.90
2018-11-02T09:13:47.227Z,48.80
2018-11-02T09:16:16.076Z,48.73
2018-11-02T09:18:44.855Z,62.37
2018-11-02T09:21:13.693Z,55.40
2018-11-02T09:23:42.547Z,44.57
2018-11-02T09:26:11.436Z,50.33
2018-11-02T09:28:40.283Z,51.43
2018-11-02T09:31:09.191Z,47.43
2018-11-02T09:33:37.987Z,46.30
2018-11-02T09:36:06.995Z,37.07
2018-11-02T09:38:35.950Z,40.40
2018-11-02T09:41:04.962Z,39.23
2018-11-02T09:43:34.115Z,35.67
2018-11-02T09:46:03.205Z,39.73
2018-11-02T09:48:32.032Z,38.73
2018-11-02T09:51:01.272Z,31.90
2018-11-02T09:53:30.444Z,41.30
2018-11-02T09:55:59.280Z,34.30
2018-11-02T09:58:28.187Z,34.93
2018-11-02T10:00:57.550Z,36.13
2018-11-02T10:03:26.579Z,35.17
2018-11-02T10:05:55.464Z,34.13
2018-11-02T10:08:24.323Z,37.03
2018-11-02T10:10:53.279Z,34.57
2018-11-02T10:13:22.504Z,35.83
2018-11-02T10:15:51.713Z,40.40
2018-11-02T10:18:20.522Z,29.20
2018-11-02T10:20:49.323Z,30.47
2018-11-02T10:23:19.624Z,36.23
2018-11-02T10:25:48.877Z,28.43
2018-11-02T10:28:17.901Z,33.80
2018-11-02T10:30:47.034Z,26.43
2018-11-02T10:33:16.001Z,26.70
2018-11-02T10:35:44.991Z,25.03
2018-11-02T10:38:13.991Z,24.47
2018-11-02T10:40:46.135Z,21.83
2018-11-02T10:43:17.130Z,24.53
2018-11-02T10:45:47.982Z,23.20
2018-11-02T10:48:16.952Z,22.13
2018-11-02T10:50:45.712Z,22.27
2018-11-02T10:53:14.502Z,29.33
2018-11-02T10:55:43.535Z,24.20
2018-11-02T10:58:12.525Z,24.57
2018-11-02T11:00:46.570Z,25.63
2018-11-02T11:03:15.496Z,26.80
2018-11-02T11:05:44.556Z,19.67
2018-11-02T11:08:13.338Z,27.00
2018-11-02T11:10:42.522Z,27.30
2018-11-02T11:13:11.728Z,24.43
2018-11-02T11:15:40.359Z,20.93
2018-11-02T11:18:09.498Z,26.03
2018-11-02T11:20:38.278Z,23.13
2018-11-02T11:23:07.523Z,22.37
2018-11-02T11:25:36.313Z,19.00
2018-11-02T11:28:06.049Z,21.13
2018-11-02T11:30:34.890Z,19.17
2018-11-02T11:33:03.734Z,23.87
2018-11-02T11:35:32.528Z,21.67
2018-11-02T11:38:01.348Z,24.87
2018-11-02T11:40:30.425Z,21.37
2018-11-02T11:42:59.223Z,22.53
2018-11-02T11:45:28.073Z,20.43
2018-11-02T11:47:57.075Z,22.07
2018-11-02T11:50:26.182Z,20.20
2018-11-02T11:52:55.524Z,24.20
2018-11-02T11:55:24.372Z,18.67
2018-11-02T11:57:53.192Z,19.63
2018-11-02T12:00:23.255Z,18.33
2018-11-02T12:02:52.754Z,22.33
2018-11-02T12:05:22.791Z,16.40
2018-11-02T12:07:51.691Z,20.00
2018-11-02T12:10:24.689Z,18.47
2018-11-02T12:12:54.115Z,21.00
2018-11-02T12:15:23.802Z,16.13
2018-11-02T12:17:52.711Z,14.70
2018-11-02T12:20:24.906Z,16.00
2018-11-02T12:22:55.635Z,17.50
2018-11-02T12:25:24.859Z,19.30
2018-11-02T12:27:53.759Z,13.43
2018-11-02T12:30:22.706Z,13.77
2018-11-02T12:32:51.482Z,17.37
2018-11-02T12:35:20.718Z,17.20
2018-11-02T12:37:49.546Z,19.70
2018-11-02T12:40:19.511Z,18.00
2018-11-02T12:42:49.384Z,17.80
2018-11-02T12:45:19.469Z,17.83
2018-11-02T12:47:48.587Z,17.40
2018-11-02T12:50:25.002Z,15.07
2018-11-02T12:52:55.098Z,19.23
2018-11-02T12:55:24.134Z,18.97
2018-11-02T12:57:53.154Z,16.80
2018-11-02T13:00:24.285Z,17.17
2018-11-02T13:02:53.757Z,17.73
2018-11-02T13:05:22.951Z,18.37
2018-11-02T13:07:51.945Z,16.30
2018-11-02T13:10:21.792Z,14.77
2018-11-02T13:12:50.820Z,17.70
2018-11-02T13:15:20.891Z,15.83
2018-11-02T13:17:50.371Z,20.93
2018-11-02T13:20:19.201Z,20.47
2018-11-02T13:22:49.083Z,18.07
2018-11-02T13:25:20.079Z,18.97
2018-11-02T13:27:49.953Z,22.57
2018-11-02T13:30:18.935Z,16.20
2018-11-02T13:32:47.780Z,19.17
2018-11-02T13:35:17.759Z,18.23
2018-11-02T13:37:47.356Z,12.80
2018-11-02T13:40:17.167Z,13.77
2018-11-02T13:42:46.052Z,16.20
2018-11-02T13:45:16.266Z,14.40
2018-11-02T13:47:45.642Z,18.40
2018-11-02T13:50:14.719Z,18.17
2018-11-02T13:52:44.134Z,15.13
2018-11-02T13:55:13.526Z,18.73
2018-11-02T13:57:42.878Z,18.23
2018-11-02T14:00:13.482Z,17.77
2018-11-02T14:02:42.451Z,19.03
2018-11-02T14:05:12.806Z,20.80
2018-11-02T14:07:41.990Z,18.10
2018-11-02T14:10:11.492Z,17.20
2018-11-02T14:12:40.764Z,17.93
2018-11-02T14:15:11.658Z,18.43
2018-11-02T14:17:41.154Z,18.30
2018-11-02T14:20:12.027Z,16.23
2018-11-02T14:22:41.059Z,17.10
2018-11-02T14:25:12.540Z,19.73
2018-11-02T14:27:41.542Z,15.00
2018-11-02T14:30:12.391Z,16.57
2018-11-02T14:32:41.166Z,15.17
2018-11-02T14:35:09.980Z,17.73
2018-11-02T14:37:38.963Z,19.83
2018-11-02T14:40:09.113Z,15.87
2018-11-02T14:42:38.930Z,21.27
2018-11-02T14:45:10.102Z,16.13
2018-11-02T14:47:38.897Z,19.57
2018-11-02T14:50:09.098Z,18.00
2018-11-02T14:52:38.137Z,17.70
2018-11-02T14:55:07.728Z,19.17
2018-11-02T14:57:36.547Z,17.13
2018-11-02T15:00:10.356Z,18.90
2018-11-02T15:02:39.507Z,19.30
2018-11-02T15:05:10.202Z,17.50
2018-11-02T15:07:39.181Z,21.73
2018-11-02T15:10:08.201Z,20.07
2018-11-02T15:12:37.294Z,17.77
2018-11-02T15:15:06.923Z,20.03
2018-11-02T15:17:35.686Z,17.13
2018-11-02T15:20:05.311Z,23.20
2018-11-02T15:22:34.158Z,23.57
2018-11-02T15:25:02.969Z,17.33
2018-11-02T15:27:31.746Z,17.70
2018-11-02T15:30:00.884Z,21.60
2018-11-02T15:32:29.710Z,19.63
2018-11-02T15:34:58.503Z,20.93
2018-11-02T15:37:27.270Z,17.43
2018-11-02T15:39:56.248Z,20.60
2018-11-02T15:42:25.071Z,14.20
2018-11-02T15:44:53.879Z,17.30
2018-11-02T15:47:23.023Z,17.77
2018-11-02T15:49:51.787Z,18.63
2018-11-02T15:52:20.561Z,18.17
2018-11-02T15:54:49.812Z,18.23
2018-11-02T15:57:18.648Z,14.67
2018-11-02T15:59:47.394Z,14.67
2018-11-02T16:02:16.331Z,16.77
2018-11-02T16:04:45.115Z,18.83
2018-11-02T16:07:13.858Z,15.43
2018-11-02T16:09:42.638Z,14.50
2018-11-02T16:12:11.383Z,18.23
2018-11-02T16:14:40.487Z,19.80
2018-11-02T16:17:09.272Z,16.63
2018-11-02T16:19:38.997Z,16.00
2018-11-02T16:22:07.907Z,15.50
2018-11-02T16:24:36.683Z,17.37
2018-11-02T16:27:05.519Z,14.77
2018-11-02T16:29:34.342Z,12.27
2018-11-02T16:32:03.192Z,13.40
2018-11-02T16:34:32.118Z,14.30
2018-11-02T16:37:00.874Z,18.40
2018-11-02T16:39:29.654Z,15.67
2018-11-02T16:41:58.461Z,12.47
2018-11-02T16:44:27.254Z,21.97
2018-11-02T16:46:56.410Z,12.80
2018-11-02T16:49:25.226Z,11.93
2018-11-02T16:51:54.056Z,13.93
2018-11-02T16:54:22.955Z,12.20
2018-11-02T16:56:51.900Z,18.03
2018-11-02T16:59:20.697Z,15.30
2018-11-02T17:01:49.768Z,15.07
2018-11-02T17:04:18.581Z,17.77
2018-11-02T17:06:47.701Z,19.07
2018-11-02T17:09:16.502Z,14.43
2018-11-02T17:11:45.437Z,16.83
2018-11-02T17:14:14.330Z,18.13
2018-11-02T17:16:43.278Z,20.10
2018-11-02T17:19:12.046Z,15.73
2018-11-02T17:21:40.909Z,23.90
2018-11-02T17:24:09.874Z,27.27
2018-11-02T17:26:38.645Z,25.27
2018-11-02T17:29:07.631Z,30.60
2018-11-02T17:31:36.459Z,33.27
2018-11-02T17:34:05.618Z,27.50
2018-11-02T17:36:34.451Z,30.30
2018-11-02T17:39:03.887Z,31.63
2018-11-02T17:41:32.743Z,28.97
2018-11-02T17:44:01.610Z,26.87
2018-11-02T17:46:30.443Z,29.60
2018-11-02T17:48:59.270Z,29.50
2018-11-02T17:51:28.317Z,27.97
2018-11-02T17:53:57.251Z,33.33
2018-11-02T17:56:26.120Z,28.10
2018-11-02T17:58:54.871Z,33.77
2018-11-02T18:01:23.695Z,33.30
2018-11-02T18:03:52.747Z,30.20
2018-11-02T18:06:21.543Z,32.33
2018-11-02T18:08:50.360Z,30.77
2018-11-02T18:11:19.426Z,32.13
2018-11-02T18:13:48.311Z,34.17
2018-11-02T18:16:17.083Z,29.23
2018-11-02T18:18:45.904Z,34.00
2018-11-02T18:21:15.561Z,30.33
2018-11-02T18:23:44.403Z,29.33
2018-11-02T18:26:13.255Z,31.50
2018-11-02T18:28:42.376Z,34.17
2018-11-02T18:31:11.227Z,30.27
2018-11-02T18:33:40.070Z,32.03
2018-11-02T18:36:08.888Z,30.50
2018-11-02T18:38:37.645Z,32.93
2018-11-02T18:41:06.485Z,31.10
2018-11-02T18:43:35.237Z,34.37
2018-11-02T18:46:04.157Z,37.67
2018-11-02T18:48:32.882Z,36.30
2018-11-02T18:51:01.630Z,31.47
2018-11-02T18:53:30.598Z,30.87
2018-11-02T18:55:59.438Z,29.73
2018-11-02T18:58:29.145Z,33.40
2018-11-02T19:00:57.923Z,35.33
2018-11-02T19:03:26.757Z,30.70
2018-11-02T19:05:55.552Z,35.77
2018-11-02T19:08:24.339Z,32.83
2018-11-02T19:10:53.145Z,35.40
2018-11-02T19:13:21.943Z,33.70
2018-11-02T19:15:50.992Z,39.43
2018-11-02T19:18:19.870Z,36.50
2018-11-02T19:20:48.844Z,36.63
2018-11-02T19:23:17.896Z,32.77
2018-11-02T19:25:46.848Z,36.20
2018-11-02T19:28:15.642Z,37.40
2018-11-02T19:30:44.550Z,34.37
2018-11-02T19:33:13.324Z,36.70
2018-11-02T19:35:42.407Z,34.03
2018-11-02T19:38:11.607Z,39.43
2018-11-02T19:40:40.357Z,41.30
2018-11-02T19:43:09.154Z,36.63
2018-11-02T19:45:37.930Z,36.90
2018-11-02T19:48:07.321Z,38.33
2018-11-02T19:50:36.121Z,38.03
2018-11-02T19:53:05.197Z,37.70
2018-11-02T19:55:34.071Z,40.13
2018-11-02T19:58:02.937Z,37.37
2018-11-02T20:00:31.762Z,35.50
2018-11-02T20:03:00.531Z,36.27
2018-11-02T20:05:29.372Z,39.37
2018-11-02T20:07:58.306Z,36.63
2018-11-02T20:10:27.144Z,37.83
2018-11-02T20:12:55.991Z,41.77
2018-11-02T20:15:24.814Z,40.57
2018-11-02T20:17:53.689Z,35.70
2018-11-02T20:20:22.618Z,38.07
2018-11-02T20:22:51.401Z,38.67
2018-11-02T20:25:20.219Z,39.23
2018-11-02T20:27:48.971Z,37.20
2018-11-02T20:30:19.167Z,35.50
2018-11-02T20:32:48.145Z,39.80
2018-11-02T20:35:16.945Z,38.53
2018-11-02T20:37:45.926Z,40.67
2018-11-02T20:40:16.800Z,45.20
2018-11-02T20:42:46.003Z,39.20
2018-11-02T20:45:15.198Z,39.00
2018-11-02T20:47:47.154Z,38.70
2018-11-02T20:50:16.074Z,43.87
2018-11-02T20:52:44.890Z,40.63
2018-11-02T20:55:14.310Z,44.60
2018-11-02T20:57:43.455Z,41.67
2018-11-02T21:00:19.927Z,40.03
2018-11-02T21:02:49.005Z,43.17
2018-11-02T21:05:19.070Z,47.83
2018-11-02T21:07:48.569Z,43.77
2018-11-02T21:10:18.746Z,45.77
2018-11-02T21:12:48.039Z,50.60
2018-11-02T21:15:18.790Z,44.93
2018-11-02T21:17:47.795Z,46.33
2018-11-02T21:20:19.870Z,45.73
2018-11-02T21:22:52.235Z,52.17
2018-11-02T21:25:21.057Z,48.70
2018-11-02T21:27:49.983Z,53.17
2018-11-02T21:30:23.266Z,46.03
2018-11-02T21:32:52.954Z,53.10
2018-11-02T21:35:22.789Z,47.10
2018-11-02T21:37:52.022Z,52.27
2018-11-02T21:40:22.963Z,50.07
2018-11-02T21:42:51.739Z,52.03
2018-11-02T21:45:21.963Z,51.70
2018-11-02T21:47:50.868Z,44.37
2018-11-02T21:50:19.823Z,48.13
2018-11-02T21:52:48.669Z,43.93
2018-11-02T21:55:17.449Z,48.13
2018-11-02T21:57:46.406Z,46.60
2018-11-02T22:00:18.859Z,42.27
2018-11-02T22:02:48.275Z,44.20
2018-11-02T22:05:17.066Z,47.40
2018-11-02T22:07:47.325Z,44.57
2018-11-02T22:10:16.739Z,47.50
2018-11-02T22:12:45.752Z,52.60
2018-11-02T22:15:14.710Z,48.17
2018-11-02T22:17:43.491Z,45.83
2018-11-02T22:20:13.542Z,45.73
2018-11-02T22:22:42.445Z,52.20
2018-11-02T22:25:12.913Z,46.23
2018-11-02T22:27:41.675Z,49.73
2018-11-02T22:30:13.088Z,46.93
2018-11-02T22:32:41.938Z,51.90
2018-11-02T22:35:11.790Z,51.83
2018-11-02T22:37:40.813Z,49.43
2018-11-02T22:40:11.591Z,49.33
2018-11-02T22:42:40.939Z,46.67
2018-11-02T22:45:10.743Z,46.20
2018-11-02T22:47:39.547Z,46.27
2018-11-02T22:50:09.121Z,50.37
2018-11-02T22:52:38.038Z,47.50
2018-11-02T22:55:08.078Z,45.63
2018-11-02T22:57:36.915Z,39.17
2018-11-02T23:00:13.955Z,40.27
2018-11-02T23:02:43.079Z,46.47
2018-11-02T23:05:12.088Z,47.57
2018-11-02T23:07:40.973Z,44.67
2018-11-02T23:10:10.370Z,46.50
2018-11-02T23:12:40.016Z,45.67
2018-11-02T23:15:09.501Z,41.17
2018-11-02T23:17:38.619Z,47.43
2018-11-02T23:20:10.443Z,39.87
2018-11-02T23:22:39.261Z,40.57
2018-11-02T23:25:09.753Z,38.67
2018-11-02T23:27:38.643Z,39.57
2018-11-02T23:30:10.129Z,40.47
2018-11-02T23:32:39.017Z,44.97
2018-11-02T23:35:08.315Z,39.97
2018-11-02T23:37:37.474Z,40.53
2018-11-02T23:40:07.107Z,40.07
2018-11-02T23:42:36.126Z,42.07
2018-11-02T23:45:06.318Z,46.30
2018-11-02T23:47:35.213Z,45.27
2018-11-02T23:50:04.459Z,42.17
2018-11-02T23:52:33.231Z,44.20
2018-11-02T23:55:02.071Z,40.73
2018-11-02T23:57:30.870Z,40.53
2018-11-02T23:59:59.650Z,43.30
